createdAt,value
2023-03-22T00:04:18.430Z,1003
2023-03-22T00:09:17.720Z,1003
2023-03-22T00:14:17.675Z,1002.9
2023-03-22T00:19:16.885Z,1002.9
2023-03-22T00:24:17.085Z,1002.9
2023-03-22T00:29:17.838Z,1002.8
2023-03-22T00:34:14.962Z,1002.8
2023-03-22T00:39:14.514Z,1002.8
2023-03-22T00:44:14.788Z,1002.7
2023-03-22T00:49:02.966Z,1002.6
2023-03-22T00:54:04.513Z,1002.5
2023-03-22T00:59:01.918Z,1002.5
2023-03-22T01:00:48.840Z,1002.4
2023-03-22T01:05:23.660Z,1002.4
2023-03-22T01:10:22.951Z,1002.4
2023-03-22T01:15:22.891Z,1002.4
2023-03-22T01:20:22.736Z,1002.3
2023-03-22T01:25:23.500Z,1002.3
2023-03-22T01:30:19.962Z,1002.2
2023-03-22T01:35:20.261Z,1002.2
2023-03-22T01:40:19.304Z,1002.2
2023-03-22T01:45:19.936Z,1002.1
2023-03-22T01:50:16.620Z,1002.1
2023-03-22T01:55:16.066Z,1002.1
2023-03-22T01:59:36.086Z,1002.1
2023-03-22T02:04:36.940Z,1002.1
2023-03-22T02:09:34.263Z,1002.1
2023-03-22T02:14:35.753Z,1002.1
2023-03-22T02:19:33.553Z,1002.1
2023-03-22T02:24:33.648Z,1002.1
2023-03-22T02:29:30.484Z,1002.2
2023-03-22T02:34:30.270Z,1002.2
2023-03-22T02:39:29.879Z,1002.2
2023-03-22T02:44:29.447Z,1002.2
2023-03-22T02:49:29.234Z,1002.1
2023-03-22T02:54:29.261Z,1002
2023-03-22T02:59:14.743Z,1002
2023-03-22T03:04:14.667Z,1002
2023-03-22T03:09:15.643Z,1001.9
2023-03-22T03:14:12.005Z,1001.9
2023-03-22T03:19:12.159Z,1001.9
2023-03-22T03:24:11.630Z,1001.9
2023-03-22T03:29:11.718Z,1001.8
2023-03-22T03:34:19.531Z,1001.7
2023-03-22T03:39:19.406Z,1001.7
2023-03-22T03:44:20.910Z,1001.7
2023-03-22T03:49:17.692Z,1001.8
2023-03-22T03:54:17.814Z,1001.9
2023-03-22T03:59:17.912Z,1001.9
2023-03-22T04:04:16.136Z,1001.9
2023-03-22T04:09:15.404Z,1001.9
2023-03-22T04:14:16.422Z,1001.9
2023-03-22T04:19:14.698Z,1001.9
2023-03-22T04:24:15.144Z,1001.8
2023-03-22T04:29:14.710Z,1001.8
2023-03-22T04:34:16.552Z,1001.7
2023-03-22T04:39:13.716Z,1001.8
2023-03-22T04:44:02.933Z,1001.7
2023-03-22T04:49:02.706Z,1001.6
2023-03-22T04:54:02.242Z,1001.6
2023-03-22T04:59:01.635Z,1001.5
2023-03-22T05:04:02.207Z,1001.5
2023-03-22T05:09:01.385Z,1001.5
2023-03-22T05:13:59.126Z,1001.5
2023-03-22T05:18:58.911Z,1001.5
2023-03-22T05:24:00.953Z,1001.5
2023-03-22T05:28:58.029Z,1001.6
2023-03-22T05:33:57.391Z,1001.6
2023-03-22T05:38:57.310Z,1001.7
2023-03-22T05:43:57.025Z,1001.7
2023-03-22T05:48:56.722Z,1001.7
2023-03-22T05:53:57.831Z,1001.7
2023-03-22T05:58:54.503Z,1001.8
2023-03-22T06:00:41.347Z,1001.8
2023-03-22T06:05:15.359Z,1001.8
2023-03-22T06:10:15.040Z,1001.8
2023-03-22T06:15:12.847Z,1001.8
2023-03-22T06:20:14.282Z,1001.8
2023-03-22T06:25:12.118Z,1001.8
2023-03-22T06:30:11.660Z,1001.7
2023-03-22T06:35:11.292Z,1001.7
2023-03-22T06:40:10.692Z,1001.6
2023-03-22T06:45:10.948Z,1001.7
2023-03-22T06:50:11.461Z,1001.7
2023-03-22T06:55:19.201Z,1001.7
2023-03-22T06:59:33.887Z,1001.7
2023-03-22T07:04:33.696Z,1001.8
2023-03-22T07:09:33.744Z,1001.6
2023-03-22T07:14:32.025Z,1001.5
2023-03-22T07:19:32.371Z,1001.4
2023-03-22T07:24:32.234Z,1001.3
2023-03-22T07:29:32.771Z,1001.2
2023-03-22T07:34:30.985Z,1001.2
2023-03-22T07:39:31.080Z,1001.3
2023-03-22T07:44:39.060Z,1001.2
2023-03-22T07:49:30.768Z,1001.2
2023-03-22T07:54:44.047Z,1001.1
2023-03-22T07:59:17.176Z,1001.1
2023-03-22T08:04:16.823Z,1001.1
2023-03-22T08:09:49.312Z,1001
2023-03-22T08:14:18.474Z,1000.9
2023-03-22T08:19:14.569Z,1001
2023-03-22T08:24:14.688Z,1000.9
2023-03-22T08:29:14.521Z,1000.8
2023-03-22T08:34:15.850Z,1000.8
2023-03-22T08:39:12.712Z,1000.9
2023-03-22T08:44:12.827Z,1000.8
2023-03-22T08:49:12.336Z,1000.5
2023-03-22T08:54:12.532Z,1000.7
2023-03-22T08:59:09.945Z,1000.9
2023-03-22T09:04:10.845Z,1000.9
2023-03-22T09:09:19.350Z,1001
2023-03-22T09:14:20.662Z,1000.9
2023-03-22T09:19:17.763Z,1000.8
2023-03-22T09:24:17.161Z,1000.8
2023-03-22T09:29:17.160Z,1000.9
2023-03-22T09:34:15.098Z,1000.9
2023-03-22T09:39:14.794Z,1000.8
2023-03-22T09:44:15.105Z,1000.6
2023-03-22T09:49:14.028Z,1000.6
2023-03-22T09:54:14.495Z,1000.5
2023-03-22T09:59:14.773Z,1000.6
2023-03-22T10:04:15.578Z,1000.5
2023-03-22T10:09:02.598Z,1000.5
2023-03-22T10:14:01.901Z,1000.5
2023-03-22T10:19:01.709Z,1000.4
2023-03-22T10:23:58.773Z,1000.4
2023-03-22T10:28:58.844Z,1000.2
2023-03-22T10:33:57.984Z,1000.1
2023-03-22T10:38:57.987Z,1000
2023-03-22T10:43:57.154Z,1000.3
2023-03-22T10:48:56.808Z,1000.4
2023-03-22T10:53:56.686Z,1000.3
2023-03-22T10:58:56.369Z,1000.3
2023-03-22T11:00:43.502Z,1000.3
2023-03-22T11:05:16.026Z,1000.3
2023-03-22T11:10:16.049Z,1000.2
2023-03-22T11:15:15.584Z,1000.1
2023-03-22T11:20:18.437Z,1000.2
2023-03-22T11:25:13.614Z,1000.1
2023-03-22T11:30:13.483Z,999.8
2023-03-22T11:35:13.104Z,999.9
2023-03-22T11:40:13.377Z,999.7
2023-03-22T11:45:11.587Z,999.9
2023-03-22T11:50:11.624Z,999.8
2023-03-22T11:55:10.929Z,999.9
2023-03-22T11:59:32.394Z,999.7
2023-03-22T12:04:29.705Z,999.5
2023-03-22T12:09:29.859Z,999.3
2023-03-22T12:14:28.652Z,999.5
2023-03-22T12:19:28.335Z,999.4
2023-03-22T12:24:27.441Z,999.5
2023-03-22T12:29:26.974Z,999.3
2023-03-22T12:34:27.194Z,999.3
2023-03-22T12:39:26.982Z,999.2
2023-03-22T12:44:28.095Z,999.2
2023-03-22T12:49:24.275Z,999.1
2023-03-22T12:54:24.710Z,999
2023-03-22T12:59:11.048Z,998.9
2023-03-22T13:04:11.311Z,998.8
2023-03-22T13:09:18.784Z,998.9
2023-03-22T13:14:18.065Z,998.8
2023-03-22T13:19:17.954Z,998.7
2023-03-22T13:24:16.551Z,998.7
2023-03-22T13:29:15.472Z,998.8
2023-03-22T13:34:16.041Z,998.7
2023-03-22T13:39:13.739Z,998.6
2023-03-22T13:44:02.967Z,998.5
2023-03-22T13:49:02.540Z,998.5
2023-03-22T13:54:02.008Z,998.4
2023-03-22T13:58:59.486Z,998.4
2023-03-22T14:03:59.584Z,998.3
2023-03-22T14:08:58.844Z,998.4
2023-03-22T14:14:00.212Z,998.2
2023-03-22T14:18:56.702Z,998.2
2023-03-22T14:53:52.639Z,998
2023-03-22T14:58:50.576Z,998
2023-03-22T15:05:10.695Z,998
2023-03-22T15:10:10.909Z,998.1
2023-03-22T15:15:18.345Z,998
2023-03-22T15:20:17.811Z,998.1
2023-03-22T15:25:17.725Z,998
2023-03-22T15:30:16.932Z,998
2023-03-22T15:36:05.586Z,997.9
2023-03-22T15:40:16.105Z,997.8
2023-03-22T15:45:16.106Z,997.8
2023-03-22T15:50:15.794Z,997.8
2023-03-22T15:55:15.988Z,997.8
2023-03-22T16:54:11.397Z,998.4
2023-03-22T17:04:19.097Z,998.4
2023-03-22T17:09:18.340Z,998.4
2023-03-22T17:14:18.759Z,998.4
2023-03-22T17:19:16.491Z,998.4
2023-03-22T17:24:15.770Z,998.5
2023-03-22T17:29:15.907Z,998.5
2023-03-22T17:34:14.810Z,998.5
2023-03-22T17:40:20.619Z,998.6
2023-03-22T17:44:14.564Z,998.6
2023-03-22T17:49:15.218Z,998.7
2023-03-22T18:04:01.586Z,998.7
2023-03-22T18:09:02.743Z,998.6
2023-03-22T18:14:18.139Z,998.7
2023-03-22T18:18:59.093Z,998.7
2023-03-22T18:23:58.875Z,998.7
2023-03-22T18:28:58.376Z,998.7
2023-03-22T18:33:58.269Z,998.8
2023-03-22T18:43:57.542Z,998.9
2023-03-22T18:48:58.703Z,998.9
2023-03-22T18:53:55.135Z,998.9
2023-03-22T18:58:54.785Z,998.8
2023-03-22T19:05:16.211Z,998.9
2023-03-22T19:10:14.098Z,998.9
2023-03-22T19:16:00.500Z,998.6
2023-03-22T19:20:13.306Z,998.6
2023-03-22T19:25:13.027Z,998.6
2023-03-22T19:30:12.864Z,998.6
2023-03-22T19:35:14.859Z,998.9
2023-03-22T19:42:00.637Z,999
2023-03-22T19:45:12.526Z,999
2023-03-22T19:50:09.957Z,999
2023-03-22T19:55:09.796Z,998.9
2023-03-22T20:34:29.873Z,999
2023-03-22T21:04:11.987Z,998.9
2023-03-22T21:09:11.305Z,998.9
2023-03-22T21:14:10.858Z,998.9
2023-03-22T21:19:10.321Z,998.9
2023-03-22T21:24:11.301Z,999
2023-03-22T21:29:11.156Z,998.9
2023-03-22T21:34:20.541Z,998.9
2023-03-22T21:39:18.657Z,999
2023-03-22T21:44:18.495Z,999.1
2023-03-22T21:49:17.390Z,999.2
2023-03-22T21:54:17.577Z,999.2
2023-03-22T21:59:17.775Z,999.1
2023-03-22T22:04:18.414Z,999
2023-03-22T22:09:15.511Z,999
2023-03-22T22:14:15.198Z,998.9
2023-03-22T22:19:16.911Z,998.8
2023-03-22T22:24:13.822Z,998.7
2023-03-22T22:29:02.896Z,998.7
2023-03-22T22:34:02.677Z,998.6
2023-03-22T22:39:03.888Z,998.6
2023-03-22T22:44:00.315Z,998.5
2023-03-22T22:49:00.566Z,998.5
2023-03-22T22:53:59.637Z,998.4
2023-03-22T22:58:59.722Z,998.4
2023-03-22T23:03:57.573Z,998.2
2023-03-22T23:08:56.537Z,998.2
2023-03-22T23:13:56.080Z,998.2
2023-03-22T23:18:57.331Z,998.1
2023-03-22T23:24:00.642Z,998.1
2023-03-22T23:28:53.766Z,998.1
2023-03-22T23:33:53.349Z,998.1
2023-03-22T23:38:53.599Z,998
2023-03-22T23:43:50.872Z,998
2023-03-22T23:48:50.451Z,997.9
2023-03-22T23:53:49.754Z,997.9
2023-03-22T23:58:49.511Z,997.8
